Time;durP1;ratioP1;P1;durP2;ratioP2;P2;SDS_P1;SDS_P2;PMS_P1;PMS_P2;Temp;Humidity;BMP_temperature;BMP_pressure;BME280_temperature;BME280_humidity;BME280_pressure;Samples;Min_cycle;Max_cycle;Signal;HPM_P1;HPM_P2
2023/05/05 00:00:30;;;;;;;6.05;2.65;;;10.90;99.90;;;;;;6227444;22;20905;-63
2023/05/05 00:02:57;;;;;;;8.65;3.00;;;10.80;99.90;;;;;;6252516;22;20180;-63
2023/05/05 00:05:25;;;;;;;8.00;3.03;;;10.80;99.90;;;;;;6242176;22;20176;-63
2023/05/05 00:07:53;;;;;;;6.32;2.95;;;10.80;99.90;;;;;;6251246;22;20643;-63
2023/05/05 00:10:19;;;;;;;5.18;2.70;;;10.80;99.90;;;;;;6242506;22;20180;-63
2023/05/05 00:12:46;;;;;;;4.10;2.53;;;10.80;99.90;;;;;;6251470;22;20207;-63
2023/05/05 00:15:13;;;;;;;10.60;3.03;;;10.70;99.90;;;;;;6233476;22;20175;-63
2023/05/05 00:17:40;;;;;;;11.50;3.05;;;10.70;99.90;;;;;;6240951;22;20535;-63
2023/05/05 00:20:08;;;;;;;4.38;2.65;;;10.70;99.90;;;;;;6253529;22;20256;-63
2023/05/05 00:22:36;;;;;;;5.25;2.78;;;10.70;99.90;;;;;;6238246;22;20560;-63
2023/05/05 00:25:03;;;;;;;4.63;2.70;;;10.70;99.90;;;;;;6254652;22;20168;-63
2023/05/05 00:27:30;;;;;;;8.52;2.63;;;10.70;99.90;;;;;;6240164;22;20203;-63
2023/05/05 00:29:57;;;;;;;7.45;2.83;;;10.70;99.90;;;;;;6242172;22;20475;-63
2023/05/05 00:32:24;;;;;;;6.65;2.75;;;10.70;99.90;;;;;;6229768;22;20690;-63
2023/05/05 00:34:50;;;;;;;5.90;2.65;;;10.70;99.90;;;;;;6252157;22;20176;-63
2023/05/05 00:37:17;;;;;;;5.15;2.55;;;10.60;99.90;;;;;;6241295;22;20176;-63
2023/05/05 00:39:45;;;;;;;5.25;3.15;;;10.60;99.90;;;;;;6250475;22;20381;-63
2023/05/05 00:42:12;;;;;;;6.10;2.70;;;10.60;99.90;;;;;;6242976;22;20172;-63
2023/05/05 00:44:40;;;;;;;8.65;3.10;;;10.60;99.90;;;;;;6239818;22;20672;-63
2023/05/05 00:47:08;;;;;;;4.00;2.42;;;10.60;99.90;;;;;;6252410;22;20172;-63
2023/05/05 00:49:36;;;;;;;6.57;2.90;;;10.60;99.90;;;;;;6236286;22;20276;-63
2023/05/05 00:52:05;;;;;;;6.70;3.17;;;10.60;99.90;;;;;;6250705;22;20172;-63
2023/05/05 00:54:33;;;;;;;4.75;2.78;;;10.50;99.90;;;;;;6238615;22;20409;-63
2023/05/05 00:57:01;;;;;;;6.22;3.03;;;10.50;99.90;;;;;;6242702;22;20172;-63
2023/05/05 00:59:30;;;;;;;3.95;2.58;;;10.50;99.90;;;;;;6247962;22;20177;-63
2023/05/05 01:01:57;;;;;;;3.75;2.38;;;10.50;99.90;;;;;;6239906;22;20199;-63
2023/05/05 01:04:24;;;;;;;10.25;3.60;;;10.40;99.90;;;;;;6230154;22;20180;-63
2023/05/05 01:06:56;;;;;;;8.25;2.80;;;10.40;99.90;;;;;;6251776;22;20172;-62
2023/05/05 01:09:30;;;;;;;6.25;2.45;;;10.40;99.90;;;;;;6239251;22;20223;-63
2023/05/05 01:12:08;;;;;;;6.82;2.90;;;10.40;99.90;;;;;;6250743;22;20186;-63
2023/05/05 01:14:40;;;;;;;5.05;2.72;;;10.40;99.90;;;;;;6239427;22;20745;-63
2023/05/05 01:17:15;;;;;;;6.40;2.80;;;10.40;99.90;;;;;;6240576;22;20255;-62
2023/05/05 01:19:59;;;;;;;7.45;2.50;;;10.30;99.90;;;;;;6232452;22;20176;-63
2023/05/05 01:22:34;;;;;;;4.38;2.47;;;10.30;99.90;;;;;;6250199;22;20203;-63
2023/05/05 01:25:46;;;;;;;5.53;2.72;;;10.30;99.90;;;;;;6233647;22;20172;-63
2023/05/05 01:28:47;;;;;;;7.35;2.65;;;10.30;99.90;;;;;;6191597;22;20179;-63
2023/05/05 01:31:26;;;;;;;4.70;2.45;;;10.30;99.90;;;;;;6246917;22;20657;-63
2023/05/05 01:34:00;;;;;;;7.60;2.53;;;10.30;99.90;;;;;;6223129;22;20249;-63
2023/05/05 01:36:36;;;;;;;4.03;2.60;;;10.20;99.90;;;;;;6255369;22;20179;-62
2023/05/05 01:39:04;;;;;;;5.85;2.70;;;10.20;99.90;;;;;;6251058;22;20198;-63
2023/05/05 01:41:35;;;;;;;10.20;2.67;;;10.10;99.90;;;;;;6243864;22;20643;-63
2023/05/05 01:44:05;;;;;;;7.30;2.60;;;10.10;99.90;;;;;;6242381;22;20200;-63
2023/05/05 01:46:33;;;;;;;4.80;2.55;;;10.10;99.90;;;;;;6246116;22;20172;-63
2023/05/05 01:49:02;;;;;;;7.72;2.55;;;10.10;99.90;;;;;;6241963;22;20176;-63
2023/05/05 01:51:30;;;;;;;6.55;2.88;;;10.20;99.90;;;;;;6235456;22;20176;-63
2023/05/05 01:53:59;;;;;;;7.32;2.30;;;10.10;99.90;;;;;;6250808;22;20199;-63
2023/05/05 01:56:28;;;;;;;4.07;2.17;;;10.10;99.90;;;;;;6245876;22;20175;-63
2023/05/05 01:58:56;;;;;;;6.43;2.38;;;10.00;99.90;;;;;;6241683;22;20176;-63
2023/05/05 02:01:25;;;;;;;11.23;3.30;;;10.00;99.90;;;;;;6245925;22;20800;-63
2023/05/05 02:03:54;;;;;;;6.32;2.97;;;10.00;99.90;;;;;;6240606;22;20176;-63
2023/05/05 02:06:24;;;;;;;8.13;3.13;;;10.00;99.90;;;;;;6234775;22;20617;-63
2023/05/05 02:08:52;;;;;;;7.88;2.53;;;10.00;99.90;;;;;;6254403;22;20192;-63
2023/05/05 02:11:20;;;;;;;7.25;2.63;;;10.00;99.90;;;;;;6244801;22;20179;-63
2023/05/05 02:13:50;;;;;;;7.13;2.60;;;10.00;99.90;;;;;;6246934;22;20289;-63
2023/05/05 02:16:18;;;;;;;9.45;3.10;;;10.00;99.90;;;;;;6252099;22;20172;-63
2023/05/05 02:18:46;;;;;;;7.60;2.80;;;9.90;99.90;;;;;;6246976;22;20180;-63
2023/05/05 02:21:16;;;;;;;5.07;2.30;;;9.90;99.90;;;;;;6219473;22;20176;-63
2023/05/05 02:23:45;;;;;;;5.03;2.83;;;9.80;99.90;;;;;;6253988;22;20176;-63
2023/05/05 02:26:14;;;;;;;5.53;2.35;;;9.80;99.90;;;;;;6243050;22;20504;-63
2023/05/05 02:28:47;;;;;;;5.15;2.08;;;9.70;99.90;;;;;;6246568;22;20172;-63
2023/05/05 02:31:15;;;;;;;10.77;2.70;;;9.70;99.90;;;;;;6251547;22;20238;-63
2023/05/05 02:33:44;;;;;;;5.55;2.78;;;9.70;99.90;;;;;;6243007;22;20269;-62
2023/05/05 02:36:16;;;;;;;6.63;3.17;;;9.70;99.90;;;;;;6237460;22;20183;-63
2023/05/05 02:38:46;;;;;;;5.60;2.55;;;9.70;99.90;;;;;;6236137;22;20206;-63
2023/05/05 02:41:19;;;;;;;7.80;2.60;;;9.70;99.90;;;;;;6241410;22;20179;-63
2023/05/05 02:43:49;;;;;;;3.90;2.70;;;9.70;99.90;;;;;;6247253;22;21092;-63
2023/05/05 02:46:16;;;;;;;6.30;2.55;;;9.70;99.90;;;;;;6243542;22;20961;-63
2023/05/05 02:48:43;;;;;;;5.78;2.45;;;9.70;99.90;;;;;;6245194;22;20180;-63
2023/05/05 02:51:09;;;;;;;7.45;2.53;;;9.60;99.90;;;;;;6238222;22;20176;-63
2023/05/05 02:53:36;;;;;;;8.45;2.50;;;9.60;99.90;;;;;;6235552;22;20196;-62
2023/05/05 02:56:16;;;;;;;4.13;2.35;;;9.60;99.90;;;;;;6241055;22;20176;-63
2023/05/05 02:58:48;;;;;;;5.43;2.45;;;9.60;99.90;;;;;;6255190;22;20172;-63
2023/05/05 03:01:39;;;;;;;7.22;2.47;;;9.60;99.90;;;;;;6238641;22;20251;-63
2023/05/05 03:04:10;;;;;;;8.30;2.45;;;9.60;99.90;;;;;;6242259;22;20172;-63
2023/05/05 03:06:42;;;;;;;3.50;2.58;;;9.60;99.90;;;;;;6242108;22;20255;-63
2023/05/05 03:09:13;;;;;;;7.22;2.50;;;9.60;99.90;;;;;;6231622;22;20295;-63
2023/05/05 03:11:46;;;;;;;5.90;3.05;;;9.50;99.90;;;;;;6253397;22;20179;-63
2023/05/05 03:14:16;;;;;;;8.05;2.75;;;9.60;99.90;;;;;;6241499;22;20200;-63
2023/05/05 03:16:44;;;;;;;8.15;2.58;;;9.50;99.90;;;;;;6245739;22;20169;-63
2023/05/05 03:19:13;;;;;;;7.55;2.78;;;9.40;99.90;;;;;;6242587;22;20178;-63
2023/05/05 03:21:40;;;;;;;9.05;2.53;;;9.40;99.90;;;;;;6243547;22;20232;-63
2023/05/05 03:24:15;;;;;;;9.38;2.45;;;9.40;99.90;;;;;;6234196;22;20176;-63
2023/05/05 03:26:45;;;;;;;5.47;2.60;;;9.40;99.90;;;;;;6254770;22;20190;-63
2023/05/05 03:29:12;;;;;;;7.25;2.53;;;9.40;99.90;;;;;;6241785;22;20176;-63
2023/05/05 03:31:39;;;;;;;5.28;2.65;;;9.40;99.90;;;;;;6242206;22;20182;-63
2023/05/05 03:34:06;;;;;;;5.60;2.67;;;9.40;99.90;;;;;;6241656;22;20203;-63
2023/05/05 03:36:34;;;;;;;5.40;2.87;;;9.40;99.90;;;;;;6238450;22;20176;-63
2023/05/05 03:39:00;;;;;;;7.50;4.32;;;9.40;99.90;;;;;;6250282;22;21343;-63
2023/05/05 03:41:28;;;;;;;12.83;2.53;;;9.30;99.90;;;;;;6229684;22;20180;-63
2023/05/05 03:43:56;;;;;;;9.02;2.47;;;9.30;99.90;;;;;;6237416;22;20594;-63
2023/05/05 03:46:23;;;;;;;7.45;2.08;;;9.30;99.90;;;;;;6235094;22;20192;-62
2023/05/05 03:48:50;;;;;;;6.33;2.80;;;9.20;99.90;;;;;;6242750;22;20671;-63
2023/05/05 03:51:17;;;;;;;6.43;2.43;;;9.20;99.90;;;;;;6252279;22;21064;-62
2023/05/05 03:53:44;;;;;;;4.50;2.53;;;9.20;99.90;;;;;;6241880;22;20949;-63
2023/05/05 03:56:11;;;;;;;7.77;2.47;;;9.20;99.90;;;;;;6236492;22;20265;-63
2023/05/05 03:58:37;;;;;;;10.48;2.75;;;9.10;99.90;;;;;;6242892;22;20182;-63
2023/05/05 04:01:06;;;;;;;7.10;3.30;;;9.20;99.90;;;;;;6243443;22;20716;-63
2023/05/05 04:03:32;;;;;;;6.47;2.90;;;9.20;99.90;;;;;;6233411;22;20199;-62
2023/05/05 04:06:00;;;;;;;6.82;2.60;;;9.20;99.90;;;;;;6248015;22;20183;-63
2023/05/05 04:08:27;;;;;;;7.38;2.63;;;9.20;99.90;;;;;;6225641;22;20198;-63
2023/05/05 04:10:53;;;;;;;6.80;2.80;;;9.10;99.90;;;;;;6252515;22;20218;-63
2023/05/05 04:13:20;;;;;;;5.80;2.70;;;9.10;99.90;;;;;;6225338;22;20198;-63
2023/05/05 04:15:47;;;;;;;7.80;3.30;;;9.10;99.90;;;;;;6251779;22;20177;-62
2023/05/05 04:18:15;;;;;;;5.57;2.43;;;9.20;99.90;;;;;;6243514;22;20748;-63
2023/05/05 04:20:42;;;;;;;7.37;2.67;;;9.20;99.90;;;;;;6253819;22;20172;-63
2023/05/05 04:23:09;;;;;;;3.80;2.20;;;9.20;99.90;;;;;;6239786;22;20195;-63
2023/05/05 04:25:36;;;;;;;9.10;2.70;;;9.20;99.90;;;;;;6239594;22;20176;-63
2023/05/05 04:28:03;;;;;;;4.53;2.83;;;9.20;99.90;;;;;;6234452;22;20180;-62
2023/05/05 04:30:29;;;;;;;6.97;2.63;;;9.20;99.90;;;;;;6242627;22;20951;-63
2023/05/05 04:32:56;;;;;;;5.63;2.60;;;9.20;99.90;;;;;;6250956;22;20183;-63
2023/05/05 04:35:24;;;;;;;7.78;2.40;;;9.30;99.90;;;;;;6240320;22;20226;-63
2023/05/05 04:37:52;;;;;;;9.27;2.70;;;9.30;99.90;;;;;;6245036;22;20176;-63
2023/05/05 04:40:19;;;;;;;10.40;2.10;;;9.30;99.90;;;;;;6232612;22;20304;-62
2023/05/05 04:42:46;;;;;;;11.52;3.25;;;9.30;99.90;;;;;;6243066;22;20203;-62
2023/05/05 04:45:12;;;;;;;8.40;2.55;;;9.40;99.90;;;;;;6218090;22;20192;-63
2023/05/05 04:47:40;;;;;;;8.47;2.67;;;9.40;99.90;;;;;;6242039;22;20728;-63
2023/05/05 04:50:07;;;;;;;4.18;2.30;;;9.40;99.90;;;;;;6236939;22;20215;-62
2023/05/05 04:52:35;;;;;;;9.18;2.95;;;9.40;99.90;;;;;;6247883;22;20486;-63
2023/05/05 04:55:03;;;;;;;5.43;2.35;;;9.40;99.90;;;;;;6220846;22;20204;-63
2023/05/05 04:57:30;;;;;;;4.60;2.30;;;9.40;99.90;;;;;;6241624;22;20172;-63
2023/05/05 04:59:58;;;;;;;7.73;2.83;;;9.50;99.90;;;;;;6228318;22;20658;-63
2023/05/05 05:02:25;;;;;;;4.63;2.50;;;9.50;99.90;;;;;;6233036;22;20180;-63
2023/05/05 05:04:52;;;;;;;5.10;2.60;;;9.50;99.90;;;;;;6231005;22;20199;-63
2023/05/05 05:07:19;;;;;;;6.05;3.15;;;9.60;99.90;;;;;;6236417;22;20191;-63
2023/05/05 05:09:47;;;;;;;6.83;2.60;;;9.60;99.90;;;;;;6225456;22;20356;-62
2023/05/05 05:12:14;;;;;;;5.53;3.05;;;9.60;99.90;;;;;;6234882;22;20196;-62
2023/05/05 05:14:41;;;;;;;4.45;2.80;;;9.50;99.90;;;;;;6225915;22;20310;-63
2023/05/05 05:17:07;;;;;;;6.90;2.40;;;9.50;99.90;;;;;;6227797;22;20203;-63
2023/05/05 05:19:34;;;;;;;5.13;2.57;;;9.50;99.90;;;;;;6232977;22;20199;-63
2023/05/05 05:22:01;;;;;;;6.50;3.08;;;9.40;99.90;;;;;;6229777;22;20374;-62
2023/05/05 05:24:28;;;;;;;5.88;3.35;;;9.40;99.90;;;;;;6247816;22;20191;-63
2023/05/05 05:26:57;;;;;;;3.07;2.17;;;9.40;99.90;;;;;;6232875;22;20578;-63
2023/05/05 05:29:25;;;;;;;5.63;2.50;;;9.40;99.90;;;;;;6234812;22;20611;-63
2023/05/05 05:31:52;;;;;;;4.15;2.60;;;9.40;99.90;;;;;;6231599;22;20218;-62
2023/05/05 05:34:19;;;;;;;5.53;2.83;;;9.40;99.90;;;;;;6250925;22;20203;-62
2023/05/05 05:36:46;;;;;;;6.18;3.08;;;9.40;99.90;;;;;;6247413;22;20579;-62
2023/05/05 05:39:13;;;;;;;4.82;2.55;;;9.40;99.90;;;;;;6248682;22;20504;-62
2023/05/05 05:41:39;;;;;;;3.55;2.40;;;9.50;99.90;;;;;;6239204;22;20179;-62
2023/05/05 05:44:07;;;;;;;4.40;2.83;;;9.60;99.90;;;;;;6227276;22;20651;-62
2023/05/05 05:46:34;;;;;;;4.55;2.90;;;9.80;99.90;;;;;;6248667;22;20176;-62
2023/05/05 05:49:01;;;;;;;8.20;2.58;;;9.90;99.90;;;;;;6241536;22;20581;-62
2023/05/05 05:51:29;;;;;;;6.38;2.67;;;10.00;99.90;;;;;;6251402;22;20202;-62
2023/05/05 05:53:55;;;;;;;8.13;2.45;;;10.10;99.90;;;;;;6243069;22;20756;-63
2023/05/05 05:56:22;;;;;;;5.75;2.83;;;10.20;99.90;;;;;;6249010;22;20203;-63
2023/05/05 05:58:49;;;;;;;4.30;2.30;;;10.20;99.90;;;;;;6235718;22;20183;-63
2023/05/05 06:01:17;;;;;;;7.50;2.30;;;10.30;99.90;;;;;;6226312;22;20749;-62
2023/05/05 06:03:44;;;;;;;6.75;2.50;;;10.30;99.90;;;;;;6237360;22;20223;-62
2023/05/05 06:06:11;;;;;;;4.70;2.67;;;10.30;99.90;;;;;;6238898;22;20796;-63
2023/05/05 06:08:37;;;;;;;5.35;2.63;;;10.30;99.90;;;;;;6232015;22;20199;-63
2023/05/05 06:11:04;;;;;;;6.18;2.97;;;10.40;99.90;;;;;;6240815;22;20172;-63
2023/05/05 06:13:31;;;;;;;9.35;2.80;;;10.40;99.90;;;;;;6230158;22;20172;-62
2023/05/05 06:15:59;;;;;;;8.02;2.53;;;10.30;99.90;;;;;;6230865;22;20542;-63
2023/05/05 06:18:27;;;;;;;6.70;3.10;;;10.40;99.90;;;;;;6239801;22;20196;-62
2023/05/05 06:20:54;;;;;;;7.07;2.75;;;10.40;99.90;;;;;;6247437;22;20194;-62
2023/05/05 06:23:21;;;;;;;3.03;2.33;;;10.40;99.90;;;;;;6235611;22;20180;-62
2023/05/05 06:25:47;;;;;;;3.33;2.30;;;10.40;99.90;;;;;;6250796;22;20176;-63
2023/05/05 06:28:15;;;;;;;7.20;2.78;;;10.40;99.90;;;;;;6235162;22;20184;-63
2023/05/05 06:30:41;;;;;;;6.25;2.70;;;10.40;99.90;;;;;;6233790;22;20176;-63
2023/05/05 06:33:08;;;;;;;4.75;3.10;;;10.50;99.90;;;;;;6237437;22;20180;-63
2023/05/05 06:35:36;;;;;;;6.40;2.53;;;10.40;99.90;;;;;;6249839;22;20701;-63
2023/05/05 06:38:03;;;;;;;6.78;2.40;;;10.40;99.90;;;;;;6247579;22;20218;-62
2023/05/05 06:40:30;;;;;;;5.57;2.85;;;10.50;99.90;;;;;;6240623;22;20420;-63
2023/05/05 06:42:57;;;;;;;4.55;2.53;;;10.50;99.90;;;;;;6243853;22;20228;-63
2023/05/05 06:45:24;;;;;;;8.15;2.88;;;10.50;99.90;;;;;;6223411;22;20524;-62
2023/05/05 06:47:51;;;;;;;4.85;2.72;;;10.50;99.90;;;;;;6250381;22;20271;-63
2023/05/05 06:50:18;;;;;;;9.60;2.88;;;10.50;99.90;;;;;;6237844;22;20192;-63
2023/05/05 06:52:46;;;;;;;6.38;3.03;;;10.50;99.90;;;;;;6247918;22;20172;-63
2023/05/05 06:55:13;;;;;;;6.70;2.72;;;10.50;99.90;;;;;;6238993;22;20338;-63
2023/05/05 06:57:40;;;;;;;6.47;2.83;;;10.50;99.90;;;;;;6252119;22;20194;-63
2023/05/05 07:00:10;;;;;;;5.75;2.50;;;10.50;99.90;;;;;;6237751;22;20176;-63
2023/05/05 07:02:37;;;;;;;3.60;1.80;;;10.50;99.90;;;;;;6235521;22;20196;-62
2023/05/05 07:05:04;;;;;;;6.97;2.85;;;10.60;99.90;;;;;;6242616;22;20690;-63
2023/05/05 07:07:31;;;;;;;5.82;2.40;;;10.80;99.90;;;;;;6248873;22;20207;-63
2023/05/05 07:09:59;;;;;;;5.03;3.05;;;10.80;99.90;;;;;;6248730;22;20245;-62
2023/05/05 07:12:30;;;;;;;5.30;3.00;;;10.60;99.90;;;;;;6243869;22;20204;-62
2023/05/05 07:14:57;;;;;;;4.20;2.50;;;10.80;99.90;;;;;;6233298;22;20199;-62
2023/05/05 07:17:24;;;;;;;6.90;2.70;;;10.70;99.90;;;;;;6231239;22;20514;-62
2023/05/05 07:19:51;;;;;;;7.20;2.95;;;10.90;99.90;;;;;;6251340;22;20526;-62
2023/05/05 07:22:17;;;;;;;7.65;2.80;;;10.90;99.90;;;;;;6235967;22;20191;-63
2023/05/05 07:24:44;;;;;;;5.22;2.97;;;10.80;99.90;;;;;;6248615;22;20172;-63
2023/05/05 07:27:12;;;;;;;4.82;2.35;;;10.70;99.90;;;;;;6238127;22;20188;-63
2023/05/05 07:29:39;;;;;;;4.25;2.92;;;10.70;99.90;;;;;;6251379;22;20168;-63
2023/05/05 07:32:06;;;;;;;5.40;3.25;;;10.60;99.90;;;;;;6226035;22;20173;-63
2023/05/05 07:34:33;;;;;;;5.32;2.70;;;10.50;99.90;;;;;;6247544;22;20168;-63
2023/05/05 07:37:00;;;;;;;5.22;2.95;;;10.40;99.90;;;;;;6241458;22;20187;-63
2023/05/05 07:39:27;;;;;;;6.28;3.30;;;10.30;99.90;;;;;;6248743;22;20401;-63
2023/05/05 07:41:54;;;;;;;6.43;2.92;;;10.30;99.90;;;;;;6248213;22;20172;-63
2023/05/05 07:44:22;;;;;;;5.63;3.03;;;10.20;99.90;;;;;;6239424;22;20427;-63
2023/05/05 07:46:49;;;;;;;6.93;2.92;;;10.30;99.90;;;;;;6238736;22;20169;-63
2023/05/05 07:49:15;;;;;;;5.70;2.92;;;10.20;99.90;;;;;;6232709;22;20380;-63
2023/05/05 07:51:43;;;;;;;7.22;3.33;;;10.20;99.90;;;;;;6251476;22;20175;-63
2023/05/05 07:54:11;;;;;;;7.63;3.13;;;10.20;99.90;;;;;;6235979;22;20172;-63
2023/05/05 07:56:37;;;;;;;6.40;2.92;;;10.20;99.90;;;;;;6248230;22;20605;-63
2023/05/05 07:59:04;;;;;;;6.65;3.05;;;10.20;99.90;;;;;;6241435;22;20169;-63
2023/05/05 08:01:32;;;;;;;5.10;3.08;;;10.20;99.90;;;;;;6238140;22;20172;-63
2023/05/05 08:03:59;;;;;;;6.32;3.80;;;10.20;99.90;;;;;;6233838;22;20183;-63
2023/05/05 08:06:26;;;;;;;6.45;3.67;;;10.30;99.90;;;;;;6249112;22;20526;-63
2023/05/05 08:08:53;;;;;;;7.35;3.88;;;10.40;99.90;;;;;;6245272;22;20199;-63
2023/05/05 08:11:20;;;;;;;3.97;2.88;;;10.40;99.90;;;;;;6249767;22;20176;-63
2023/05/05 08:13:47;;;;;;;5.93;3.67;;;10.60;99.90;;;;;;6245501;22;20610;-63
2023/05/05 08:16:14;;;;;;;4.68;3.05;;;10.70;99.90;;;;;;6235195;22;20756;-63
2023/05/05 08:18:42;;;;;;;6.82;3.30;;;10.70;99.90;;;;;;6250962;22;20178;-63
2023/05/05 08:21:10;;;;;;;6.95;3.40;;;10.70;99.90;;;;;;6233242;22;20176;-63
2023/05/05 08:23:38;;;;;;;4.95;3.55;;;10.80;99.90;;;;;;6250003;22;20222;-63
2023/05/05 08:26:06;;;;;;;5.35;3.20;;;10.80;99.90;;;;;;6236470;22;20173;-63
2023/05/05 08:28:34;;;;;;;6.03;3.17;;;10.80;99.90;;;;;;6240919;22;20172;-63
2023/05/05 08:31:01;;;;;;;3.88;3.10;;;10.90;99.90;;;;;;6242819;22;20176;-64
2023/05/05 08:33:27;;;;;;;9.13;3.60;;;10.90;99.90;;;;;;6241350;22;20919;-63
2023/05/05 08:35:55;;;;;;;5.30;3.22;;;10.90;99.90;;;;;;6231227;22;20718;-63
2023/05/05 08:38:22;;;;;;;5.50;3.40;;;10.90;99.90;;;;;;6246832;22;20799;-63
2023/05/05 08:40:51;;;;;;;4.50;3.00;;;11.00;99.90;;;;;;6243100;22;20180;-63
2023/05/05 08:43:19;;;;;;;8.35;2.90;;;10.90;99.90;;;;;;6246867;22;20419;-63
2023/05/05 08:45:46;;;;;;;8.48;3.30;;;11.00;99.90;;;;;;6241781;22;20172;-63
2023/05/05 08:48:13;;;;;;;7.55;3.22;;;11.10;99.90;;;;;;6236994;22;20182;-63
2023/05/05 08:50:42;;;;;;;4.82;3.38;;;11.20;99.90;;;;;;6227963;22;20547;-63
2023/05/05 08:53:15;;;;;;;8.27;3.42;;;11.30;99.90;;;;;;6246705;22;20958;-63
2023/05/05 08:55:48;;;;;;;10.95;3.60;;;11.40;99.90;;;;;;6242597;22;20525;-63
2023/05/05 08:58:16;;;;;;;8.63;3.42;;;11.40;99.90;;;;;;6247053;22;20188;-64
2023/05/05 09:00:45;;;;;;;6.53;3.30;;;11.50;99.90;;;;;;6249195;22;20176;-63
2023/05/05 09:03:12;;;;;;;5.55;3.22;;;11.50;99.90;;;;;;6229570;22;20218;-63
2023/05/05 09:05:39;;;;;;;7.68;3.25;;;11.60;99.90;;;;;;6234562;22;20187;-63
2023/05/05 09:08:07;;;;;;;9.90;3.63;;;11.80;99.90;;;;;;6242671;22;20172;-63
2023/05/05 09:10:36;;;;;;;5.60;2.80;;;11.80;99.90;;;;;;6244304;22;20222;-63
2023/05/05 09:13:04;;;;;;;5.43;3.00;;;11.80;99.90;;;;;;6249556;22;20176;-63
2023/05/05 09:15:32;;;;;;;4.20;3.20;;;12.00;99.90;;;;;;6250530;22;20242;-63
2023/05/05 09:17:59;;;;;;;6.00;3.30;;;12.00;99.90;;;;;;6246650;22;20259;-63
2023/05/05 09:20:33;;;;;;;9.10;3.65;;;12.20;99.90;;;;;;6244800;22;20175;-63
2023/05/05 09:23:08;;;;;;;4.78;2.75;;;12.10;99.90;;;;;;6228260;22;20177;-63
2023/05/05 09:25:36;;;;;;;8.60;4.00;;;12.30;99.90;;;;;;6250944;22;20172;-63
2023/05/05 09:28:09;;;;;;;7.38;3.15;;;12.30;99.90;;;;;;6237611;22;20664;-63
2023/05/05 09:30:36;;;;;;;4.07;2.92;;;12.50;99.90;;;;;;6252296;22;20993;-63
2023/05/05 09:33:03;;;;;;;6.80;3.50;;;12.50;99.90;;;;;;6247762;22;20634;-63
2023/05/05 09:35:48;;;;;;;6.53;3.22;;;12.50;99.90;;;;;;6238547;22;20542;-63
2023/05/05 09:38:15;;;;;;;8.55;3.33;;;12.60;99.90;;;;;;6230425;22;20443;-63
2023/05/05 09:40:47;;;;;;;7.97;3.67;;;12.80;99.90;;;;;;6250520;22;20257;-63
2023/05/05 09:43:15;;;;;;;6.00;3.08;;;13.00;99.90;;;;;;6237345;22;20204;-63
2023/05/05 09:45:42;;;;;;;8.30;3.63;;;13.00;99.90;;;;;;6244989;22;20295;-63
2023/05/05 09:48:22;;;;;;;8.38;3.70;;;13.10;99.90;;;;;;6246197;22;21003;-63
2023/05/05 09:50:49;;;;;;;6.40;3.63;;;13.20;99.90;;;;;;6239296;22;20168;-63
2023/05/05 09:53:16;;;;;;;5.60;3.60;;;13.30;99.90;;;;;;6231513;22;20206;-64
2023/05/05 09:55:54;;;;;;;6.28;3.50;;;13.40;99.90;;;;;;6249555;22;20215;-62
2023/05/05 09:58:23;;;;;;;9.75;3.83;;;13.50;99.90;;;;;;6241197;22;20509;-63
2023/05/05 10:00:50;;;;;;;8.00;3.40;;;13.60;99.90;;;;;;6246933;22;20245;-64
2023/05/05 10:03:17;;;;;;;7.80;3.53;;;13.70;99.90;;;;;;6247354;22;20183;-63
2023/05/05 10:05:50;;;;;;;5.10;3.08;;;13.70;99.90;;;;;;6249828;22;20259;-63
2023/05/05 10:08:18;;;;;;;9.40;3.75;;;13.70;99.90;;;;;;6221305;22;20200;-63
2023/05/05 10:10:49;;;;;;;5.38;3.63;;;13.70;99.90;;;;;;6252011;22;20172;-63
2023/05/05 10:13:19;;;;;;;7.47;3.33;;;13.70;99.90;;;;;;6246614;22;20380;-63
2023/05/05 10:15:48;;;;;;;5.28;3.55;;;13.80;99.90;;;;;;6237253;22;20326;-63
2023/05/05 10:18:18;;;;;;;6.13;3.70;;;13.80;99.90;;;;;;6248294;22;20388;-63
2023/05/05 10:20:48;;;;;;;4.95;3.35;;;13.90;99.90;;;;;;6251501;22;20180;-63
2023/05/05 10:23:18;;;;;;;5.63;3.17;;;14.00;99.90;;;;;;6219878;22;21041;-63
2023/05/05 10:25:52;;;;;;;7.05;3.67;;;14.10;99.90;;;;;;6252147;22;20195;-63
2023/05/05 10:28:34;;;;;;;7.82;3.15;;;14.20;99.90;;;;;;6246601;22;20646;-64
2023/05/05 10:31:02;;;;;;;7.57;3.65;;;14.30;99.90;;;;;;6242742;22;20500;-63
2023/05/05 10:33:35;;;;;;;7.00;3.67;;;14.30;99.90;;;;;;6246059;22;20176;-63
2023/05/05 10:36:05;;;;;;;6.15;3.75;;;14.40;99.90;;;;;;6243602;22;20195;-63
2023/05/05 10:38:33;;;;;;;8.93;3.30;;;14.50;99.90;;;;;;6251953;22;20255;-63
2023/05/05 10:41:01;;;;;;;4.43;3.38;;;14.50;99.90;;;;;;6233630;22;20237;-63
2023/05/05 10:43:30;;;;;;;5.68;3.40;;;14.50;99.90;;;;;;6249083;22;20204;-63
2023/05/05 10:45:58;;;;;;;8.20;3.70;;;14.50;99.90;;;;;;6241484;22;20185;-63
2023/05/05 10:48:32;;;;;;;10.73;3.78;;;14.50;99.90;;;;;;6244631;22;20199;-64
2023/05/05 10:51:07;;;;;;;7.55;3.90;;;14.60;99.90;;;;;;6247351;22;20226;-63
2023/05/05 10:53:42;;;;;;;5.43;3.53;;;14.70;99.90;;;;;;6242031;22;20531;-63
2023/05/05 10:56:14;;;;;;;10.98;3.60;;;14.80;99.90;;;;;;6211845;22;20615;-63
2023/05/05 10:58:42;;;;;;;6.93;3.72;;;14.80;99.90;;;;;;6238046;22;20173;-63
2023/05/05 11:01:09;;;;;;;10.75;4.05;;;14.90;99.90;;;;;;6231320;22;20709;-63
2023/05/05 11:03:36;;;;;;;6.93;3.28;;;15.00;99.90;;;;;;6238469;22;20372;-63
2023/05/05 11:06:11;;;;;;;6.70;3.30;;;15.10;99.90;;;;;;6249376;22;20180;-63
2023/05/05 11:08:39;;;;;;;5.05;3.50;;;15.10;99.90;;;;;;6233258;22;20996;-63
2023/05/05 11:11:06;;;;;;;9.27;4.22;;;15.20;99.90;;;;;;6234101;22;20176;-63
2023/05/05 11:13:33;;;;;;;7.68;3.95;;;15.20;99.90;;;;;;6245943;22;20479;-64
2023/05/05 11:16:01;;;;;;;9.50;4.10;;;15.30;99.90;;;;;;6242013;22;20492;-64
2023/05/05 11:18:36;;;;;;;7.35;4.35;;;15.30;99.90;;;;;;6237227;22;20627;-64
2023/05/05 11:21:17;;;;;;;24.60;5.35;;;15.30;99.90;;;;;;6250058;22;20172;-64
2023/05/05 11:23:51;;;;;;;8.32;4.53;;;15.40;99.90;;;;;;6237357;22;20455;-64
2023/05/05 11:26:38;;;;;;;8.00;4.20;;;15.40;99.90;;;;;;6233042;22;20259;-63
2023/05/05 11:29:05;;;;;;;7.38;3.88;;;15.50;99.90;;;;;;6250388;22;20172;-64
2023/05/05 11:31:33;;;;;;;6.53;4.03;;;15.50;99.90;;;;;;6235964;22;20176;-63
2023/05/05 11:34:26;;;;;;;6.82;4.13;;;15.50;99.90;;;;;;6241328;22;20513;-63
2023/05/05 11:36:57;;;;;;;5.32;3.47;;;15.50;99.90;;;;;;6249133;22;20667;-63
2023/05/05 11:39:36;;;;;;;5.60;3.92;;;15.50;99.90;;;;;;6235233;22;20176;-63
2023/05/05 11:42:24;;;;;;;6.47;4.07;;;15.60;99.90;;;;;;6233547;22;20180;-64
2023/05/05 11:44:52;;;;;;;5.53;4.32;;;15.60;99.90;;;;;;6251331;22;20446;-64
2023/05/05 11:47:31;;;;;;;5.28;4.03;;;15.60;99.90;;;;;;6237473;22;20177;-63
2023/05/05 11:49:58;;;;;;;7.65;4.13;;;15.60;99.90;;;;;;6252313;22;20187;-63
2023/05/05 11:52:27;;;;;;;7.68;4.30;;;15.60;99.90;;;;;;6247643;22;20235;-63
2023/05/05 11:54:59;;;;;;;10.57;4.05;;;15.70;99.90;;;;;;6243042;22;20176;-63
2023/05/05 11:57:28;;;;;;;7.03;4.47;;;15.80;99.90;;;;;;6226839;22;20203;-63
2023/05/05 11:59:57;;;;;;;5.60;4.00;;;16.00;99.90;;;;;;6253400;22;20191;-63
2023/05/05 12:02:26;;;;;;;7.07;4.18;;;16.00;99.90;;;;;;6233774;22;20196;-64
2023/05/05 12:04:54;;;;;;;10.70;4.13;;;16.00;99.90;;;;;;6250848;22;20199;-64
2023/05/05 12:07:23;;;;;;;4.60;4.00;;;16.00;99.90;;;;;;6249818;22;20176;-63
2023/05/05 12:09:50;;;;;;;8.98;4.60;;;16.10;99.90;;;;;;6240650;22;20824;-64
2023/05/05 12:12:17;;;;;;;7.20;4.20;;;16.00;99.90;;;;;;6230097;22;20180;-64
2023/05/05 12:14:50;;;;;;;7.88;4.35;;;16.10;99.90;;;;;;6249153;22;20537;-64
2023/05/05 12:17:18;;;;;;;10.93;3.60;;;16.10;99.90;;;;;;6236978;22;20201;-64
2023/05/05 12:19:46;;;;;;;7.10;4.28;;;16.20;99.90;;;;;;6237340;22;20195;-64
2023/05/05 12:22:21;;;;;;;8.85;4.80;;;16.10;99.90;;;;;;6239001;22;20618;-64
2023/05/05 12:24:55;;;;;;;7.03;4.40;;;16.20;99.90;;;;;;6238701;22;20206;-64
2023/05/05 12:27:22;;;;;;;6.22;3.97;;;16.30;99.90;;;;;;6234696;22;20511;-64
2023/05/05 12:29:50;;;;;;;8.43;4.85;;;16.30;99.90;;;;;;6247100;22;20419;-64
2023/05/05 12:32:21;;;;;;;7.85;4.63;;;16.40;99.90;;;;;;6248697;22;20267;-64
2023/05/05 12:34:52;;;;;;;7.88;4.18;;;16.40;99.90;;;;;;6228081;22;20172;-64
2023/05/05 12:37:22;;;;;;;8.18;4.25;;;16.30;99.90;;;;;;6249408;22;20196;-64
2023/05/05 12:39:49;;;;;;;5.35;3.90;;;16.40;99.90;;;;;;6230866;22;20203;-64
2023/05/05 12:42:16;;;;;;;5.63;4.10;;;16.50;99.90;;;;;;6220522;22;20303;-64
2023/05/05 12:44:43;;;;;;;7.68;4.75;;;16.60;99.90;;;;;;6228475;22;20215;-64
2023/05/05 12:47:12;;;;;;;6.45;4.05;;;16.60;99.90;;;;;;6233491;22;20482;-63
2023/05/05 12:49:46;;;;;;;6.38;4.80;;;16.60;99.90;;;;;;6221623;22;20234;-63
2023/05/05 12:52:13;;;;;;;7.93;4.78;;;16.60;99.90;;;;;;6243212;22;20268;-63
2023/05/05 12:54:53;;;;;;;6.15;4.43;;;16.70;99.90;;;;;;6230051;22;20454;-64
2023/05/05 12:57:20;;;;;;;7.13;4.80;;;16.80;99.90;;;;;;6229049;22;20592;-63